Norwegian Sky — C6PZ8 — position and weather

sailwx.info

Track history (hours):
 
Tides and Currents Weather Stations Pressure Air Temp Water Temp Dewpoint Dewpoint Depression Visibility Wind Speed Wind Dir Waves Ship Positions

Norwegian Sky (Norway)

Operator: Norwegian Cruise Line

Last reported at 2019-May-20 16:30 UTC. Time now 2019-May-20 16:58 UTC.
Position N 25°46' W 080°10'.

Length 258 m; draft 8.2 m.

Type: Ship. MMSI: 308865000.

Date/timePositionNaut miles runAvg speedWind from/ knotsBaromVisibWave heightAir tempDewpointWater temp
2019-May-20 16:30N 25°46' W 080°10'0 0.0
2019-May-20 16:00N 25°46' W 080°10'0 0.0
2019-May-20 15:30N 25°46' W 080°10'0 0.0
2019-May-20 15:00N 25°46' W 080°10'0 0.0
2019-May-20 14:30N 25°46' W 080°10'0 0.0
2019-May-20 14:00N 25°46' W 080°10'0 0.0
2019-May-20 13:30N 25°46' W 080°10'0 0.0
2019-May-20 13:00N 25°46' W 080°10'6815.1
2019-May-20 13:00N 25°42' W 080°06'611.5 080 / 71015.010.8 27.024.326.0
2019-May-20 12:30N 25°46' W 080°10'0 0.0
2019-May-20 12:00N 25°46' W 080°10'0 0.0
2019-May-20 11:30N 25°46' W 080°10'0 0.0
2019-May-20 11:00N 25°46' W 080°10'0 0.0
2019-May-20 10:30N 25°46' W 080°10'0 0.0
2019-May-20 10:01N 25°46' W 080°10'1 1.3
2019-May-20 09:30N 25°47' W 080°10'1 2.6
2019-May-20 09:00N 25°46' W 080°09'510.4
2019-May-20 08:30N 25°46' W 080°03'4 8.7
2019-May-20 08:00N 25°47' W 079°59'5 9.1
2019-May-20 07:30N 25°47' W 079°54'4 8.3
2019-May-20 07:00N 25°47' W 079°49'510.1
2019-May-20 06:30N 25°48' W 079°43'510.6
2019-May-20 06:00N 25°51' W 079°39'510.9
2019-May-20 05:30N 25°55' W 079°34'611.3
2019-May-20 05:00N 25°59' W 079°30'611.6
2019-May-20 04:30N 26°03' W 079°25'611.7
2019-May-20 04:00N 26°07' W 079°21'812.4
2019-May-20 03:21N 26°10' W 079°13'7 0.1
2019-May-18 02:30N 26°06' W 079°19'613.2
2019-May-18 02:00N 26°02' W 079°24'612.8
2019-May-18 01:30N 25°58' W 079°29'612.6
2019-May-18 01:00N 25°53' W 079°34'612.2
2019-May-18 00:30N 25°49' W 079°39'611.1
2019-May-18 00:00N 25°46' W 079°45'510.0
2019-May-17 23:30N 25°46' W 079°50'5 9.8
2019-May-17 23:01N 25°46' W 079°55'5 9.8
2019-May-17 22:31N 25°46' W 080°01'5 9.5
2019-May-17 22:00N 25°46' W 080°06'4 8.9
2019-May-17 21:30N 25°47' W 080°11'1 1.7
2019-May-17 20:58N 25°47' W 080°10'0 0.0
2019-May-17 20:28N 25°47' W 080°10'0 0.0
2019-May-17 19:58N 25°47' W 080°10'0 0.0
2019-May-17 19:28N 25°47' W 080°10'0 0.0
2019-May-17 18:58N 25°47' W 080°10'0 0.0
2019-May-17 18:28N 25°47' W 080°10'0 0.0
2019-May-17 17:58N 25°47' W 080°10'0 0.0
2019-May-17 17:28N 25°47' W 080°10'0 0.0
2019-May-17 16:58N 25°47' W 080°10'0 0.0
2019-May-17 16:28N 25°47' W 080°10'612.1
2019-May-17 16:00N 25°42' W 080°06'6299.0 060 / 171017.010.8 27.021.326.0
2019-May-17 15:58N 25°47' W 080°10'0 0.0
2019-May-17 15:28N 25°47' W 080°10'0 0.0
2019-May-17 14:58N 25°47' W 080°10'0 0.0
2019-May-17 14:28N 25°47' W 080°10'0 0.0
2019-May-17 13:58N 25°47' W 080°10'0 0.0
2019-May-17 13:28N 25°47' W 080°10'612.1
2019-May-17 13:00N 25°42' W 080°06'6299.0 080 / 111015.010.8 27.025.726.0
2019-May-17 12:58N 25°47' W 080°10'0 0.0
2019-May-17 12:28N 25°47' W 080°10'0 0.0
2019-May-17 11:58N 25°47' W 080°10'0 0.0
2019-May-17 11:28N 25°47' W 080°10'0 0.0
2019-May-17 10:58N 25°47' W 080°10'0 0.0
2019-May-17 10:28N 25°47' W 080°10'0 0.0
2019-May-17 09:58N 25°47' W 080°10'0 0.7
2019-May-17 09:30N 25°46' W 080°10'510.4
2019-May-17 09:00N 25°46' W 080°04'510.4
2019-May-17 08:30N 25°47' W 079°58'4 8.1
2019-May-17 08:00N 25°47' W 079°54'4 8.5
2019-May-17 07:30N 25°48' W 079°49'4 8.3
2019-May-17 07:00N 25°48' W 079°44'6414.8
2019-May-17 07:00N 25°42' W 079°42'815.5 060 / 111015.010.8 26.023.2
2019-May-17 06:30N 25°49' W 079°40'4 8.6
2019-May-17 06:00N 25°52' W 079°37'510.7
2019-May-17 05:30N 25°56' W 079°33'611.1
2019-May-17 05:00N 26°00' W 079°28'611.4
2019-May-17 04:30N 26°04' W 079°24'611.9
2019-May-17 03:59N 26°08' W 079°19'612.7
2019-May-17 03:30N 26°11' W 079°12'8473677.1
2019-May-16 15:00N 25°48' E 077°54'8479955.8 150 / 71013.010.8 23.018.522.0
2019-May-16 06:07N 26°09' W 079°18'646.3
2019-May-16 06:00N 26°06' W 079°12'7262.8 070 / 151015.0 5.4 25.021.2
2019-May-16 05:58N 26°08' W 079°20'612.9
2019-May-16 05:30N 26°03' W 079°24'613.1
2019-May-16 05:00N 25°58' W 079°28'713.5
2019-May-16 04:30N 25°52' W 079°32'713.7
2019-May-16 04:00N 25°46' W 079°35'714.3
2019-May-16 03:30N 25°39' W 079°35'714.3
2019-May-16 03:00N 25°31' W 079°36'714.0
2019-May-16 02:30N 25°24' W 079°36'713.8
2019-May-16 01:58N 25°17' W 079°37'86872189.2
2019-May-15 22:00N 24°30' E 080°00'87862928.6 050 / 111013.510.8 27.022.826.0
2019-May-15 19:00N 24°00' W 080°36'3015.0 030 / 91014.010.8 27.024.3
2019-May-15 17:00N 23°48' W 081°06'6315.7 100 / 81015.010.8 27.022.826.0
2019-May-15 13:00N 23°18' W 082°06'61 2.0 100 / 151013.010.8 25.022.226.0
2019-May-14 06:00N 23°24' W 081°00'2524.6 200 / 41016.0 5.4 25.023.6
2019-May-14 05:00N 23°48' W 080°54'9223.0 130 / 211016.0 2.2 24.019.625.0
2019-May-14 01:00N 25°06' W 080°00'10 6.1 240 / 181013.010.8 27.024.326.0
2019-May-13 23:26N 25°15' W 080°01'818.3
2019-May-13 23:00N 25°23' W 080°02'918.4
2019-May-13 22:31N 25°32' W 080°02'917.3
2019-May-13 22:00N 25°41' W 080°03'611.7
2019-May-13 21:30N 25°45' W 080°07'3 5.8
2019-May-13 21:00N 25°46' W 080°10'0 0.0
2019-May-13 20:26N 25°46' W 080°10'0 0.0
2019-May-13 19:56N 25°46' W 080°10'0 0.0
2019-May-13 19:29N 25°46' W 080°10'0 0.0
2019-May-13 18:56N 25°46' W 080°10'0 0.0
2019-May-13 18:29N 25°46' W 080°10'0 0.0
2019-May-13 17:59N 25°46' W 080°10'0 0.0
2019-May-13 17:29N 25°46' W 080°10'0 0.0
2019-May-13 16:59N 25°46' W 080°10'0 0.0
2019-May-13 16:29N 25°46' W 080°10'611.6
2019-May-13 16:00N 25°42' W 080°06'6566.0 210 / 161015.010.8 29.022.026.0
2019-May-13 15:59N 25°46' W 080°10'0 0.0
2019-May-13 15:29N 25°46' W 080°10'0 0.0
2019-May-13 14:59N 25°46' W 080°10'0 0.0
2019-May-13 14:29N 25°46' W 080°10'0 0.0
2019-May-13 13:59N 25°46' W 080°10'0 0.0
2019-May-13 13:29N 25°46' W 080°10'611.5
2019-May-13 13:00N 25°42' W 080°06'6582.2 200 / 151013.010.8 27.024.326.0
2019-May-13 12:59N 25°46' W 080°10'0 0.0
2019-May-13 12:29N 25°46' W 080°10'0 0.0
2019-May-13 11:59N 25°46' W 080°10'0 0.0
2019-May-13 11:29N 25°46' W 080°10'0 0.0
2019-May-13 10:59N 25°46' W 080°10'0 0.0
2019-May-13 10:29N 25°46' W 080°10'0 0.0
2019-May-13 09:59N 25°46' W 080°10'0 0.3
2019-May-13 09:30N 25°47' W 080°10'0 0.8
2019-May-13 09:00N 25°46' W 080°10'611.4
2019-May-13 08:30N 25°47' W 080°03'510.1
2019-May-13 08:00N 25°47' W 079°58'611.4
2019-May-13 07:30N 25°47' W 079°51'611.0
2019-May-13 07:00N 25°48' W 079°45'5 9.4
2019-May-13 06:30N 25°49' W 079°40'510.1
2019-May-13 06:00N 25°53' W 079°36'510.4
2019-May-13 05:30N 25°57' W 079°32'510.5
2019-May-13 05:00N 26°00' W 079°28'510.8
2019-May-13 04:30N 26°04' W 079°24'611.1
2019-May-13 04:00N 26°08' W 079°19'611.4
2019-May-13 03:30N 26°10' W 079°13'6313.9
2019-May-12 23:00N 25°54' W 078°06'12 1.4 170 / 161013.010.8 27.022.826.0
2019-May-12 14:00N 25°48' W 077°54'0 0.0 150 / 151015.010.8 28.022.426.0
2019-May-12 12:00N 25°48' W 077°54'16 1.8 140 / 161015.010.8 24.018.026.0
2019-May-12 03:00N 25°48' W 077°36'26 8.8 140 / 151016.010.8 26.021.823.0
2019-May-12 00:00N 25°24' W 077°24'25 3.1 100 / 141015.027.0 27.022.826.0
2019-May-11 16:00N 25°00' W 077°18'0 0.0 120 / 151016.010.8 28.022.426.0
2019-May-11 12:00N 25°00' W 077°18'12812.4 130 / 111016.010.8 27.022.826.0
2019-May-11 01:36N 26°06' W 079°20'313.6
2019-May-11 01:23N 26°04' W 079°23'513.8
2019-May-11 01:00N 26°00' W 079°27'713.9
2019-May-11 00:31N 25°55' W 079°32'714.1
2019-May-11 00:01N 25°50' W 079°38'3173.8
2019-May-11 00:00N 25°48' W 079°36'715.5 100 / 171015.010.8 27.022.826.0
2019-May-10 23:30N 25°46' W 079°44'611.8
2019-May-10 23:00N 25°46' W 079°51'611.3
2019-May-10 22:30N 25°46' W 079°57'611.5
2019-May-10 22:00N 25°46' W 080°03'510.4
2019-May-10 21:30N 25°46' W 080°09'1 2.2
2019-May-10 21:00N 25°47' W 080°10'0 0.4
2019-May-10 20:28N 25°47' W 080°10'0 0.0
2019-May-10 19:55N 25°47' W 080°10'0 0.0
2019-May-10 19:28N 25°47' W 080°10'0 0.0
2019-May-10 18:58N 25°47' W 080°10'0 0.0
2019-May-10 18:28N 25°47' W 080°10'0 0.0
2019-May-10 17:58N 25°47' W 080°10'0 0.0
2019-May-10 17:28N 25°47' W 080°10'0 0.0
2019-May-10 16:58N 25°47' W 080°10'  
Track history (hours):
 
Tides and Currents Weather Stations Pressure Air Temp Water Temp Dewpoint Dewpoint Depression Visibility Wind Speed Wind Dir Waves Ship Positions

Norwegian Sky (Norway)

Operator: Norwegian Cruise Line

Last reported at 2019-May-20 16:30 UTC. Time now 2019-May-20 16:58 UTC.
Position N 25°46' W 080°10'.

Length 258 m; draft 8.2 m.

Type: Ship. MMSI: 308865000.

Date/timePositionNaut miles runAvg speedWind from/ knotsBaromVisibWave heightAir tempDewpointWater temp
2019-May-20 16:30N 25°46' W 080°10'0 0.0
2019-May-20 16:00N 25°46' W 080°10'0 0.0
2019-May-20 15:30N 25°46' W 080°10'0 0.0
2019-May-20 15:00N 25°46' W 080°10'0 0.0
2019-May-20 14:30N 25°46' W 080°10'0 0.0
2019-May-20 14:00N 25°46' W 080°10'0 0.0
2019-May-20 13:30N 25°46' W 080°10'0 0.0
2019-May-20 13:00N 25°46' W 080°10'6815.1
2019-May-20 13:00N 25°42' W 080°06'611.5 080 / 71015.010.8 27.024.326.0
2019-May-20 12:30N 25°46' W 080°10'0 0.0
2019-May-20 12:00N 25°46' W 080°10'0 0.0
2019-May-20 11:30N 25°46' W 080°10'0 0.0
2019-May-20 11:00N 25°46' W 080°10'0 0.0
2019-May-20 10:30N 25°46' W 080°10'0 0.0
2019-May-20 10:01N 25°46' W 080°10'1 1.3
2019-May-20 09:30N 25°47' W 080°10'1 2.6
2019-May-20 09:00N 25°46' W 080°09'510.4
2019-May-20 08:30N 25°46' W 080°03'4 8.7
2019-May-20 08:00N 25°47' W 079°59'5 9.1
2019-May-20 07:30N 25°47' W 079°54'4 8.3
2019-May-20 07:00N 25°47' W 079°49'510.1
2019-May-20 06:30N 25°48' W 079°43'510.6
2019-May-20 06:00N 25°51' W 079°39'510.9
2019-May-20 05:30N 25°55' W 079°34'611.3
2019-May-20 05:00N 25°59' W 079°30'611.6
2019-May-20 04:30N 26°03' W 079°25'611.7
2019-May-20 04:00N 26°07' W 079°21'812.4
2019-May-20 03:21N 26°10' W 079°13'7 0.1
2019-May-18 02:30N 26°06' W 079°19'613.2
2019-May-18 02:00N 26°02' W 079°24'612.8
2019-May-18 01:30N 25°58' W 079°29'612.6
2019-May-18 01:00N 25°53' W 079°34'612.2
2019-May-18 00:30N 25°49' W 079°39'611.1
2019-May-18 00:00N 25°46' W 079°45'510.0
2019-May-17 23:30N 25°46' W 079°50'5 9.8
2019-May-17 23:01N 25°46' W 079°55'5 9.8
2019-May-17 22:31N 25°46' W 080°01'5 9.5
2019-May-17 22:00N 25°46' W 080°06'4 8.9
2019-May-17 21:30N 25°47' W 080°11'1 1.7
2019-May-17 20:58N 25°47' W 080°10'0 0.0
2019-May-17 20:28N 25°47' W 080°10'0 0.0
2019-May-17 19:58N 25°47' W 080°10'0 0.0
2019-May-17 19:28N 25°47' W 080°10'0 0.0
2019-May-17 18:58N 25°47' W 080°10'0 0.0
2019-May-17 18:28N 25°47' W 080°10'0 0.0
2019-May-17 17:58N 25°47' W 080°10'0 0.0
2019-May-17 17:28N 25°47' W 080°10'0 0.0
2019-May-17 16:58N 25°47' W 080°10'0 0.0
2019-May-17 16:28N 25°47' W 080°10'612.1
2019-May-17 16:00N 25°42' W 080°06'6299.0 060 / 171017.010.8 27.021.326.0
2019-May-17 15:58N 25°47' W 080°10'0 0.0
2019-May-17 15:28N 25°47' W 080°10'0 0.0
2019-May-17 14:58N 25°47' W 080°10'0 0.0
2019-May-17 14:28N 25°47' W 080°10'0 0.0
2019-May-17 13:58N 25°47' W 080°10'0 0.0
2019-May-17 13:28N 25°47' W 080°10'612.1
2019-May-17 13:00N 25°42' W 080°06'6299.0 080 / 111015.010.8 27.025.726.0
2019-May-17 12:58N 25°47' W 080°10'0 0.0
2019-May-17 12:28N 25°47' W 080°10'0 0.0
2019-May-17 11:58N 25°47' W 080°10'0 0.0
2019-May-17 11:28N 25°47' W 080°10'0 0.0
2019-May-17 10:58N 25°47' W 080°10'0 0.0
2019-May-17 10:28N 25°47' W 080°10'0 0.0
2019-May-17 09:58N 25°47' W 080°10'0 0.7
2019-May-17 09:30N 25°46' W 080°10'510.4
2019-May-17 09:00N 25°46' W 080°04'510.4
2019-May-17 08:30N 25°47' W 079°58'4 8.1
2019-May-17 08:00N 25°47' W 079°54'4 8.5
2019-May-17 07:30N 25°48' W 079°49'4 8.3
2019-May-17 07:00N 25°48' W 079°44'6414.8
2019-May-17 07:00N 25°42' W 079°42'815.5 060 / 111015.010.8 26.023.2
2019-May-17 06:30N 25°49' W 079°40'4 8.6
2019-May-17 06:00N 25°52' W 079°37'510.7
2019-May-17 05:30N 25°56' W 079°33'611.1
2019-May-17 05:00N 26°00' W 079°28'611.4
2019-May-17 04:30N 26°04' W 079°24'611.9
2019-May-17 03:59N 26°08' W 079°19'612.7
2019-May-17 03:30N 26°11' W 079°12'8473677.1
2019-May-16 15:00N 25°48' E 077°54'8479955.8 150 / 71013.010.8 23.018.522.0
2019-May-16 06:07N 26°09' W 079°18'646.3
2019-May-16 06:00N 26°06' W 079°12'7262.8 070 / 151015.0 5.4 25.021.2
2019-May-16 05:58N 26°08' W 079°20'612.9
2019-May-16 05:30N 26°03' W 079°24'613.1
2019-May-16 05:00N 25°58' W 079°28'713.5
2019-May-16 04:30N 25°52' W 079°32'713.7
2019-May-16 04:00N 25°46' W 079°35'714.3
2019-May-16 03:30N 25°39' W 079°35'714.3
2019-May-16 03:00N 25°31' W 079°36'714.0
2019-May-16 02:30N 25°24' W 079°36'713.8
2019-May-16 01:58N 25°17' W 079°37'86872189.2
2019-May-15 22:00N 24°30' E 080°00'87862928.6 050 / 111013.510.8 27.022.826.0
2019-May-15 19:00N 24°00' W 080°36'3015.0 030 / 91014.010.8 27.024.3
2019-May-15 17:00N 23°48' W 081°06'6315.7 100 / 81015.010.8 27.022.826.0
2019-May-15 13:00N 23°18' W 082°06'61 2.0 100 / 151013.010.8 25.022.226.0
2019-May-14 06:00N 23°24' W 081°00'2524.6 200 / 41016.0 5.4 25.023.6
2019-May-14 05:00N 23°48' W 080°54'9223.0 130 / 211016.0 2.2 24.019.625.0
2019-May-14 01:00N 25°06' W 080°00'10 6.1 240 / 181013.010.8 27.024.326.0
2019-May-13 23:26N 25°15' W 080°01'818.3
2019-May-13 23:00N 25°23' W 080°02'918.4
2019-May-13 22:31N 25°32' W 080°02'917.3
2019-May-13 22:00N 25°41' W 080°03'611.7
2019-May-13 21:30N 25°45' W 080°07'3 5.8
2019-May-13 21:00N 25°46' W 080°10'0 0.0
2019-May-13 20:26N 25°46' W 080°10'0 0.0
2019-May-13 19:56N 25°46' W 080°10'0 0.0
2019-May-13 19:29N 25°46' W 080°10'0 0.0
2019-May-13 18:56N 25°46' W 080°10'0 0.0
2019-May-13 18:29N 25°46' W 080°10'0 0.0
2019-May-13 17:59N 25°46' W 080°10'0 0.0
2019-May-13 17:29N 25°46' W 080°10'0 0.0
2019-May-13 16:59N 25°46' W 080°10'0 0.0
2019-May-13 16:29N 25°46' W 080°10'611.6
2019-May-13 16:00N 25°42' W 080°06'6566.0 210 / 161015.010.8 29.022.026.0
2019-May-13 15:59N 25°46' W 080°10'0 0.0
2019-May-13 15:29N 25°46' W 080°10'0 0.0
2019-May-13 14:59N 25°46' W 080°10'0 0.0
2019-May-13 14:29N 25°46' W 080°10'0 0.0
2019-May-13 13:59N 25°46' W 080°10'0 0.0
2019-May-13 13:29N 25°46' W 080°10'611.5
2019-May-13 13:00N 25°42' W 080°06'6582.2 200 / 151013.010.8 27.024.326.0
2019-May-13 12:59N 25°46' W 080°10'0 0.0
2019-May-13 12:29N 25°46' W 080°10'0 0.0
2019-May-13 11:59N 25°46' W 080°10'0 0.0
2019-May-13 11:29N 25°46' W 080°10'0 0.0
2019-May-13 10:59N 25°46' W 080°10'0 0.0
2019-May-13 10:29N 25°46' W 080°10'0 0.0
2019-May-13 09:59N 25°46' W 080°10'0 0.3
2019-May-13 09:30N 25°47' W 080°10'0 0.8
2019-May-13 09:00N 25°46' W 080°10'611.4
2019-May-13 08:30N 25°47' W 080°03'510.1
2019-May-13 08:00N 25°47' W 079°58'611.4
2019-May-13 07:30N 25°47' W 079°51'611.0
2019-May-13 07:00N 25°48' W 079°45'5 9.4
2019-May-13 06:30N 25°49' W 079°40'510.1
2019-May-13 06:00N 25°53' W 079°36'510.4
2019-May-13 05:30N 25°57' W 079°32'510.5
2019-May-13 05:00N 26°00' W 079°28'510.8
2019-May-13 04:30N 26°04' W 079°24'611.1
2019-May-13 04:00N 26°08' W 079°19'611.4
2019-May-13 03:30N 26°10' W 079°13'6313.9
2019-May-12 23:00N 25°54' W 078°06'12 1.4 170 / 161013.010.8 27.022.826.0
2019-May-12 14:00N 25°48' W 077°54'0 0.0 150 / 151015.010.8 28.022.426.0
2019-May-12 12:00N 25°48' W 077°54'16 1.8 140 / 161015.010.8 24.018.026.0
2019-May-12 03:00N 25°48' W 077°36'26 8.8 140 / 151016.010.8 26.021.823.0
2019-May-12 00:00N 25°24' W 077°24'25 3.1 100 / 141015.027.0 27.022.826.0
2019-May-11 16:00N 25°00' W 077°18'0 0.0 120 / 151016.010.8 28.022.426.0
2019-May-11 12:00N 25°00' W 077°18'12812.4 130 / 111016.010.8 27.022.826.0
2019-May-11 01:36N 26°06' W 079°20'313.6
2019-May-11 01:23N 26°04' W 079°23'513.8
2019-May-11 01:00N 26°00' W 079°27'713.9
2019-May-11 00:31N 25°55' W 079°32'714.1
2019-May-11 00:01N 25°50' W 079°38'3173.8
2019-May-11 00:00N 25°48' W 079°36'715.5 100 / 171015.010.8 27.022.826.0
2019-May-10 23:30N 25°46' W 079°44'611.8
2019-May-10 23:00N 25°46' W 079°51'611.3
2019-May-10 22:30N 25°46' W 079°57'611.5
2019-May-10 22:00N 25°46' W 080°03'510.4
2019-May-10 21:30N 25°46' W 080°09'1 2.2
2019-May-10 21:00N 25°47' W 080°10'0 0.4
2019-May-10 20:28N 25°47' W 080°10'0 0.0
2019-May-10 19:55N 25°47' W 080°10'0 0.0
2019-May-10 19:28N 25°47' W 080°10'0 0.0
2019-May-10 18:58N 25°47' W 080°10'0 0.0
2019-May-10 18:28N 25°47' W 080°10'0 0.0
2019-May-10 17:58N 25°47' W 080°10'0 0.0
2019-May-10 17:28N 25°47' W 080°10'0 0.0
2019-May-10 16:58N 25°47' W 080°10'  

Dump ship's entire track history